Time;durP1;ratioP1;P1;durP2;ratioP2;P2;SDS_P1;SDS_P2;PMS_P1;PMS_P2;Temp;Humidity;BMP_temperature;BMP_pressure;BME280_temperature;BME280_humidity;BME280_pressure;Samples;Min_cycle;Max_cycle;Signal;HPM_P1;HPM_P2
2022/09/08 00:01:59;;;;;;;;;;;19.00;83.10;;;;;;5040510;28;20374;-77
2022/09/08 00:04:25;;;;;;;;;;;19.00;83.20;;;;;;5045289;28;20400;-77
2022/09/08 00:06:51;;;;;;;;;;;19.00;83.30;;;;;;5045115;28;19925;-77
2022/09/08 00:09:16;;;;;;;;;;;19.00;83.30;;;;;;5037775;28;20361;-77
2022/09/08 00:11:42;;;;;;;;;;;19.00;83.30;;;;;;5047287;28;20394;-77
2022/09/08 00:14:08;;;;;;;;;;;19.00;83.30;;;;;;5048909;28;19999;-77
2022/09/08 00:16:33;;;;;;;;;;;18.90;83.00;;;;;;5045693;28;19929;-77
2022/09/08 00:18:59;;;;;;;;;;;18.90;83.00;;;;;;5042525;28;19920;-77
2022/09/08 00:21:25;;;;;;;;;;;18.80;83.30;;;;;;5046228;28;20363;-77
2022/09/08 00:23:51;;;;;;;;;;;18.80;83.50;;;;;;5048580;28;19916;-77
2022/09/08 00:26:17;;;;;;;;;;;18.80;83.40;;;;;;5046000;28;20447;-77
2022/09/08 00:28:43;;;;;;;;;;;18.70;83.40;;;;;;5044225;28;19935;-77
2022/09/08 00:31:09;;;;;;;;;;;18.70;83.60;;;;;;5048735;28;19923;-77
2022/09/08 00:33:34;;;;;;;;;;;18.70;83.80;;;;;;5042633;28;20000;-77
2022/09/08 00:36:03;;;;;;;;;;;18.70;83.80;;;;;;5046267;28;20289;-78
2022/09/08 00:38:30;;;;;;;;;;;18.70;83.70;;;;;;5047889;28;19913;-77
2022/09/08 00:40:57;;;;;;;;;;;18.80;83.70;;;;;;5044194;28;19963;-77
2022/09/08 00:43:39;;;;;;;;;;;18.80;83.70;;;;;;5044167;28;19917;-77
2022/09/08 00:46:04;;;;;;;;;;;18.80;83.70;;;;;;5040881;28;19921;-78
2022/09/08 00:48:31;;;;;;;;;;;18.80;83.50;;;;;;5050960;28;20649;-77
2022/09/08 00:50:58;;;;;;;;;;;18.70;83.60;;;;;;5039128;28;20301;-77
2022/09/08 00:53:24;;;;;;;;;;;18.80;83.70;;;;;;5045395;28;19920;-77
2022/09/08 00:55:50;;;;;;;;;;;18.80;83.60;;;;;;5044200;28;19913;-77
2022/09/08 00:58:16;;;;;;;;;;;18.80;83.70;;;;;;5042032;28;20293;-77
2022/09/08 01:00:42;;;;;;;;;;;18.80;83.90;;;;;;5044342;28;19920;-77
2022/09/08 01:03:08;;;;;;;;;;;18.80;83.90;;;;;;5044596;28;19924;-78
2022/09/08 01:05:46;;;;;;;;;;;18.80;83.70;;;;;;5038385;28;19966;-77
2022/09/08 01:13:48;;;;;;;;;;;18.60;83.20;;;;;;5046662;28;20372;-78
2022/09/08 01:16:14;;;;;;;;;;;18.60;84.00;;;;;;5044491;28;19987;-77
2022/09/08 01:18:40;;;;;;;;;;;18.60;84.10;;;;;;5046633;28;19917;-77
2022/09/08 01:21:13;;;;;;;;;;;18.60;84.20;;;;;;5047004;28;19916;-77
2022/09/08 01:23:58;;;;;;;;;;;18.60;84.20;;;;;;5047117;28;19916;-78
2022/09/08 01:26:46;;;;;;;;;;;18.60;84.50;;;;;;5044586;28;19913;-77
2022/09/08 01:29:12;;;;;;;;;;;18.60;84.10;;;;;;5044751;28;20004;-77
2022/09/08 01:31:39;;;;;;;;;;;18.70;84.20;;;;;;5047572;28;19917;-77
2022/09/08 01:34:05;;;;;;;;;;;18.70;84.30;;;;;;5045440;28;20442;-77
2022/09/08 01:36:31;;;;;;;;;;;18.70;84.10;;;;;;5044701;28;19963;-77
2022/09/08 01:38:56;;;;;;;;;;;18.70;84.50;;;;;;5047406;28;19940;-77
2022/09/08 01:41:22;;;;;;;;;;;18.60;83.90;;;;;;5048134;28;19913;-77
2022/09/08 01:43:47;;;;;;;;;;;18.60;84.20;;;;;;5049945;28;19925;-77
2022/09/08 01:46:12;;;;;;;;;;;18.70;84.30;;;;;;5046229;28;19913;-77
2022/09/08 01:48:38;;;;;;;;;;;18.60;84.40;;;;;;5059667;28;20518;-77
2022/09/08 01:51:05;;;;;;;;;;;18.60;84.40;;;;;;5048332;28;19920;-77
2022/09/08 01:53:31;;;;;;;;;;;18.70;84.20;;;;;;5046331;28;19913;-78
2022/09/08 01:55:56;;;;;;;;;;;18.70;84.30;;;;;;5045636;28;20424;-77
2022/09/08 01:58:22;;;;;;;;;;;18.80;84.20;;;;;;5045730;28;20492;-78
2022/09/08 02:00:48;;;;;;;;;;;18.80;84.20;;;;;;5047126;28;19920;-77
2022/09/08 02:03:13;;;;;;;;;;;18.80;84.10;;;;;;5047228;28;19924;-77
2022/09/08 02:05:39;;;;;;;;;;;18.80;84.10;;;;;;5050017;28;19995;-77
2022/09/08 02:08:05;;;;;;;;;;;18.80;84.20;;;;;;5049642;28;19921;-77
2022/09/08 02:10:31;;;;;;;;;;;18.80;84.20;;;;;;5052859;28;19923;-77
2022/09/08 02:12:57;;;;;;;;;;;18.80;84.10;;;;;;5054552;28;19913;-77
2022/09/08 02:15:22;;;;;;;;;;;18.90;83.80;;;;;;5051570;28;20278;-77
2022/09/08 02:17:48;;;;;;;;;;;19.00;82.20;;;;;;5045387;28;19935;-77
2022/09/08 02:20:15;;;;;;;;;;;19.00;82.70;;;;;;5041345;28;19928;-77
2022/09/08 02:22:41;;;;;;;;;;;18.90;83.20;;;;;;5035709;28;19916;-77
2022/09/08 02:25:06;;;;;;;;;;;18.90;83.20;;;;;;5049752;28;20003;-78
2022/09/08 02:27:32;;;;;;;;;;;18.90;83.30;;;;;;5047863;28;19921;-77
2022/09/08 02:29:57;;;;;;;;;;;18.90;83.00;;;;;;5056653;28;20250;-77
2022/09/08 02:32:23;;;;;;;;;;;18.90;83.50;;;;;;5043571;28;19913;-77
2022/09/08 02:34:48;;;;;;;;;;;18.80;83.60;;;;;;5044890;28;19916;-77
2022/09/08 02:37:14;;;;;;;;;;;18.90;83.60;;;;;;5033220;28;19913;-77
2022/09/08 02:39:39;;;;;;;;;;;18.90;83.60;;;;;;5045289;28;19925;-77
2022/09/08 02:42:06;;;;;;;;;;;18.90;83.70;;;;;;5046534;28;20337;-77
2022/09/08 02:44:32;;;;;;;;;;;18.90;83.80;;;;;;5043201;28;19920;-77
2022/09/08 02:46:57;;;;;;;;;;;18.90;84.00;;;;;;5041275;28;19959;-78
2022/09/08 02:49:23;;;;;;;;;;;18.90;83.20;;;;;;5046213;28;20009;-76
2022/09/08 02:51:48;;;;;;;;;;;18.90;83.50;;;;;;5045319;28;22023;-77
2022/09/08 02:54:14;;;;;;;;;;;18.90;83.20;;;;;;5046889;28;19952;-78
2022/09/08 02:56:39;;;;;;;;;;;18.90;83.30;;;;;;5043500;28;19925;-78
2022/09/08 02:59:05;;;;;;;;;;;18.90;83.30;;;;;;5040636;28;20135;-78
2022/09/08 03:01:30;;;;;;;;;;;18.90;83.50;;;;;;5048389;28;20343;-78
2022/09/08 03:03:55;;;;;;;;;;;18.90;83.30;;;;;;5038652;28;20097;-78
2022/09/08 03:06:21;;;;;;;;;;;18.90;83.10;;;;;;5048994;28;19984;-79
2022/09/08 03:08:46;;;;;;;;;;;18.90;83.20;;;;;;5048437;28;19924;-78
2022/09/08 03:11:12;;;;;;;;;;;18.90;82.90;;;;;;5048898;28;19916;-78
2022/09/08 03:13:39;;;;;;;;;;;18.90;82.80;;;;;;5048949;28;19966;-78
2022/09/08 03:16:05;;;;;;;;;;;18.90;82.90;;;;;;5048717;28;19920;-78
2022/09/08 03:18:31;;;;;;;;;;;18.90;83.40;;;;;;5044510;28;19913;-78
2022/09/08 03:21:00;;;;;;;;;;;19.00;83.50;;;;;;5035469;28;19917;-78
2022/09/08 03:23:27;;;;;;;;;;;19.00;83.40;;;;;;5047639;28;20309;-78
2022/09/08 03:25:52;;;;;;;;;;;19.00;83.30;;;;;;5048256;28;20421;-78
2022/09/08 03:28:22;;;;;;;;;;;19.00;83.30;;;;;;5046345;28;19920;-79
2022/09/08 03:30:48;;;;;;;;;;;19.00;83.30;;;;;;5050403;28;19917;-78
2022/09/08 03:33:13;;;;;;;;;;;19.00;83.20;;;;;;5043731;28;19946;-78
2022/09/08 03:35:39;;;;;;;;;;;19.00;83.00;;;;;;5047141;28;19921;-78
2022/09/08 03:38:05;;;;;;;;;;;19.00;83.10;;;;;;5045372;28;20003;-78
2022/09/08 03:40:31;;;;;;;;;;;19.00;83.50;;;;;;5048861;28;20548;-78
2022/09/08 03:42:56;;;;;;;;;;;19.00;83.50;;;;;;5045646;28;19920;-78
2022/09/08 03:45:22;;;;;;;;;;;18.90;83.50;;;;;;5048447;28;19920;-78
2022/09/08 03:47:47;;;;;;;;;;;19.00;83.00;;;;;;5045481;28;19995;-78
2022/09/08 03:50:14;;;;;;;;;;;18.90;83.20;;;;;;5047574;28;19913;-78
2022/09/08 03:52:39;;;;;;;;;;;19.00;82.90;;;;;;5040985;28;20035;-78
2022/09/08 03:55:05;;;;;;;;;;;18.90;82.80;;;;;;5048387;28;20700;-78
2022/09/08 03:57:31;;;;;;;;;;;18.90;82.80;;;;;;5044409;28;20366;-78
2022/09/08 03:59:57;;;;;;;;;;;18.90;82.50;;;;;;5050137;28;19913;-78
2022/09/08 04:02:23;;;;;;;;;;;18.90;81.50;;;;;;5044867;28;21861;-78
2022/09/08 04:04:49;;;;;;;;;;;18.90;80.00;;;;;;5046514;28;19920;-78
2022/09/08 04:07:15;;;;;;;;;;;18.90;78.00;;;;;;5040136;28;19912;-78
2022/09/08 04:09:41;;;;;;;;;;;19.00;77.80;;;;;;5047329;28;19916;-78
2022/09/08 04:12:07;;;;;;;;;;;19.00;77.10;;;;;;5043506;28;19924;-78
2022/09/08 04:14:32;;;;;;;;;;;19.10;77.80;;;;;;5046153;28;20456;-78
2022/09/08 04:16:58;;;;;;;;;;;19.10;77.00;;;;;;5047111;28;20440;-78
2022/09/08 04:19:23;;;;;;;;;;;19.10;77.00;;;;;;5040509;28;19917;-78
2022/09/08 04:21:49;;;;;;;;;;;19.10;76.70;;;;;;5044565;28;19919;-78
2022/09/08 04:24:14;;;;;;;;;;;19.10;77.80;;;;;;5047647;28;20191;-79
2022/09/08 04:26:40;;;;;;;;;;;19.10;78.00;;;;;;5041372;28;20355;-78
2022/09/08 04:29:06;;;;;;;;;;;19.20;76.50;;;;;;5058015;28;19913;-78
2022/09/08 04:31:34;;;;;;;;;;;19.20;76.30;;;;;;5052642;28;19917;-78
2022/09/08 04:34:00;;;;;;;;;;;19.40;75.90;;;;;;5045728;28;20324;-78
2022/09/08 04:36:26;;;;;;;;;;;19.40;75.50;;;;;;5044731;28;19970;-78
2022/09/08 04:38:53;;;;;;;;;;;19.50;75.60;;;;;;5045128;28;19920;-78
2022/09/08 04:41:18;;;;;;;;;;;19.50;76.30;;;;;;5047550;28;19982;-79
2022/09/08 04:43:44;;;;;;;;;;;19.50;77.30;;;;;;5046760;28;20445;-79
2022/09/08 04:46:11;;;;;;;;;;;19.60;77.40;;;;;;5053608;28;19935;-79
2022/09/08 04:48:37;;;;;;;;;;;19.60;78.70;;;;;;5039856;28;19923;-79
2022/09/08 04:51:03;;;;;;;;;;;19.50;79.30;;;;;;5034616;28;19916;-79
2022/09/08 04:53:30;;;;;;;;;;;19.20;80.70;;;;;;5036543;28;19912;-78
2022/09/08 04:55:56;;;;;;;;;;;19.20;79.50;;;;;;5045374;28;19917;-78
2022/09/08 04:58:21;;;;;;;;;;;19.10;80.20;;;;;;5039587;28;20108;-77
2022/09/08 05:00:47;;;;;;;;;;;19.00;81.20;;;;;;5071118;22;19944;-86
2022/09/08 05:03:13;;;;;;;;;;;18.90;82.50;;;;;;5043976;28;19935;-83
2022/09/08 05:05:38;;;;;;;;;;;18.80;83.60;;;;;;5045439;28;19912;-84
2022/09/08 05:08:04;;;;;;;;;;;18.70;84.00;;;;;;5048155;28;19921;-82
2022/09/08 05:10:32;;;;;;;;;;;18.60;84.60;;;;;;5047514;28;19924;-83
2022/09/08 05:12:57;;;;;;;;;;;18.60;84.80;;;;;;5043354;28;19939;-81
2022/09/08 05:15:23;;;;;;;;;;;18.60;84.30;;;;;;5054183;28;19912;-81
2022/09/08 05:17:48;;;;;;;;;;;18.50;84.70;;;;;;5046660;28;19917;-81
2022/09/08 05:20:14;;;;;;;;;;;18.40;84.90;;;;;;5053109;28;19959;-81
2022/09/08 05:22:40;;;;;;;;;;;18.30;84.80;;;;;;5047715;28;20322;-79
2022/09/08 05:25:05;;;;;;;;;;;18.30;85.30;;;;;;5048344;28;19921;-82
2022/09/08 05:27:31;;;;;;;;;;;18.30;85.50;;;;;;5052158;28;19913;-82
2022/09/08 05:29:56;;;;;;;;;;;18.20;85.90;;;;;;5044299;28;19916;-81
2022/09/08 05:32:22;;;;;;;;;;;18.20;85.90;;;;;;5051748;28;19913;-79
2022/09/08 05:34:47;;;;;;;;;;;18.30;85.80;;;;;;5057523;28;19913;-81
2022/09/08 05:37:13;;;;;;;;;;;18.20;86.30;;;;;;5049635;28;19916;-80
2022/09/08 05:39:38;;;;;;;;;;;18.20;86.30;;;;;;5050698;28;19948;-80
2022/09/08 05:42:04;;;;;;;;;;;18.10;86.50;;;;;;5045328;28;19974;-80
2022/09/08 05:44:29;;;;;;;;;;;18.10;86.90;;;;;;5050820;28;20011;-83
2022/09/08 05:46:55;;;;;;;;;;;18.00;87.60;;;;;;5047206;28;19928;-80
2022/09/08 05:49:20;;;;;;;;;;;18.00;87.90;;;;;;5046554;28;19967;-80
2022/09/08 05:51:46;;;;;;;;;;;18.10;87.70;;;;;;5048270;28;19924;-81
2022/09/08 05:54:12;;;;;;;;;;;18.10;87.90;;;;;;5045292;28;19935;-80
2022/09/08 05:56:37;;;;;;;;;;;18.00;87.90;;;;;;5045740;28;19917;-80
2022/09/08 05:59:02;;;;;;;;;;;18.10;87.70;;;;;;5056533;28;19913;-80
2022/09/08 06:01:29;;;;;;;;;;;18.10;87.40;;;;;;5054590;28;20395;-81
2022/09/08 06:03:55;;;;;;;;;;;18.00;87.40;;;;;;5052433;28;19921;-81
2022/09/08 06:06:21;;;;;;;;;;;18.00;87.60;;;;;;5050627;28;19920;-80
2022/09/08 06:08:46;;;;;;;;;;;18.00;88.10;;;;;;5051101;28;19916;-79
2022/09/08 06:11:12;;;;;;;;;;;18.00;87.90;;;;;;5053901;28;20503;-80
2022/09/08 06:13:37;;;;;;;;;;;18.00;88.20;;;;;;5055399;28;19916;-80
2022/09/08 06:16:08;;;;;;;;;;;18.00;88.50;;;;;;5049532;28;19989;-79
2022/09/08 06:18:34;;;;;;;;;;;18.00;88.40;;;;;;5053966;28;20318;-80
2022/09/08 06:21:03;;;;;;;;;;;18.00;88.40;;;;;;5051110;28;19938;-79
2022/09/08 06:23:29;;;;;;;;;;;17.90;88.30;;;;;;5053552;28;19979;-81
2022/09/08 06:25:55;;;;;;;;;;;17.90;88.30;;;;;;5051403;28;19955;-80
2022/09/08 06:28:26;;;;;;;;;;;17.90;88.60;;;;;;5051112;28;19916;-81
2022/09/08 06:30:53;;;;;;;;;;;17.80;88.60;;;;;;5050634;28;19920;-80
2022/09/08 06:33:29;;;;;;;;;;;17.80;88.80;;;;;;5047448;28;19964;-79
2022/09/08 06:36:07;;;;;;;;;;;17.80;88.90;;;;;;5063597;28;19975;-79
2022/09/08 06:38:45;;;;;;;;;;;17.70;89.00;;;;;;5051171;28;19919;-81
2022/09/08 06:41:13;;;;;;;;;;;17.70;89.30;;;;;;5051203;28;20347;-80
2022/09/08 06:43:42;;;;;;;;;;;17.80;89.10;;;;;;5054024;28;19971;-80
2022/09/08 06:46:22;;;;;;;;;;;17.90;89.10;;;;;;5049206;28;19917;-81
2022/09/08 06:48:48;;;;;;;;;;;17.90;88.70;;;;;;5050165;28;19913;-82
2022/09/08 06:51:25;;;;;;;;;;;17.90;89.00;;;;;;5048479;28;19928;-80
2022/09/08 06:54:00;;;;;;;;;;;18.00;88.70;;;;;;5045840;28;19980;-80
2022/09/08 06:56:37;;;;;;;;;;;18.00;89.10;;;;;;5051111;28;19917;-79
2022/09/08 06:59:08;;;;;;;;;;;18.00;88.90;;;;;;5049066;28;19919;-80
2022/09/08 07:01:42;;;;;;;;;;;18.00;88.80;;;;;;5049810;28;19943;-80
2022/09/08 07:04:25;;;;;;;;;;;18.10;88.60;;;;;;5060744;28;20387;-79
2022/09/08 07:07:03;;;;;;;;;;;18.10;88.40;;;;;;5051769;28;20323;-80
2022/09/08 07:09:28;;;;;;;;;;;18.10;88.50;;;;;;5052579;28;19958;-80
2022/09/08 07:11:58;;;;;;;;;;;18.00;88.40;;;;;;5053613;28;19913;-80
2022/09/08 07:14:25;;;;;;;;;;;18.10;88.70;;;;;;5051018;28;19975;-80
2022/09/08 07:17:06;;;;;;;;;;;18.00;88.80;;;;;;5053605;28;20011;-83
2022/09/08 07:19:52;;;;;;;;;;;18.00;88.90;;;;;;5054027;28;20280;-81
2022/09/08 07:22:23;;;;;;;;;;;18.00;89.10;;;;;;5054169;28;19923;-80
2022/09/08 07:24:50;;;;;;;;;;;18.10;89.10;;;;;;5053293;28;19980;-83
2022/09/08 07:27:16;;;;;;;;;;;18.10;89.10;;;;;;5053621;28;19916;-82
2022/09/08 07:29:43;;;;;;;;;;;18.10;88.90;;;;;;5051965;28;19912;-80
2022/09/08 07:32:18;;;;;;;;;;;18.10;88.80;;;;;;5050421;28;19920;-81
2022/09/08 07:34:52;;;;;;;;;;;18.10;88.40;;;;;;5055900;28;19966;-80
2022/09/08 07:37:25;;;;;;;;;;;18.10;88.60;;;;;;5053707;28;20011;-80
2022/09/08 07:39:59;;;;;;;;;;;18.10;88.80;;;;;;5053737;28;20646;-82
2022/09/08 07:42:25;;;;;;;;;;;18.10;88.70;;;;;;5054828;28;19913;-81
2022/09/08 07:45:01;;;;;;;;;;;18.10;88.70;;;;;;5052802;28;19927;-82
2022/09/08 07:47:27;;;;;;;;;;;18.10;88.20;;;;;;5044721;28;19963;-82
2022/09/08 07:49:55;;;;;;;;;;;18.10;88.30;;;;;;5062926;28;19920;-80
2022/09/08 07:52:24;;;;;;;;;;;18.20;88.60;;;;;;5051258;28;19925;-81
2022/09/08 07:54:58;;;;;;;;;;;18.10;88.70;;;;;;5053052;28;19913;-80
2022/09/08 07:57:36;;;;;;;;;;;18.10;88.50;;;;;;5051489;28;19919;-81
2022/09/08 08:00:14;;;;;;;;;;;18.10;88.80;;;;;;5050295;28;19995;-81
2022/09/08 08:03:00;;;;;;;;;;;18.10;89.10;;;;;;5045560;28;21309;-81
2022/09/08 08:05:29;;;;;;;;;;;18.20;88.90;;;;;;5050445;28;19917;-81
2022/09/08 08:08:13;;;;;;;;;;;18.30;88.30;;;;;;5051685;28;19924;-82
2022/09/08 08:10:44;;;;;;;;;;;18.30;88.30;;;;;;5049947;28;20625;-81
2022/09/08 08:13:19;;;;;;;;;;;18.20;88.20;;;;;;5049830;28;19912;-81
2022/09/08 08:15:46;;;;;;;;;;;18.30;88.50;;;;;;5045267;28;20379;-80
2022/09/08 08:18:30;;;;;;;;;;;18.20;88.40;;;;;;5048843;28;19920;-81
2022/09/08 08:21:01;;;;;;;;;;;18.10;87.70;;;;;;5047792;28;20351;-81
2022/09/08 08:23:32;;;;;;;;;;;18.10;87.00;;;;;;5047448;28;20431;-82
2022/09/08 08:26:05;;;;;;;;;;;18.00;86.70;;;;;;5050044;28;19917;-80
2022/09/08 08:28:33;;;;;;;;;;;17.90;86.60;;;;;;5064654;28;19931;-81
2022/09/08 08:31:26;;;;;;;;;;;17.90;87.10;;;;;;5051103;28;19917;-83
2022/09/08 08:34:00;;;;;;;;;;;17.80;88.00;;;;;;5058593;28;19916;-82
2022/09/08 08:36:26;;;;;;;;;;;17.80;86.90;;;;;;5063906;28;19935;-81
2022/09/08 08:38:55;;;;;;;;;;;17.70;87.10;;;;;;5053185;28;19916;-81
2022/09/08 08:41:31;;;;;;;;;;;17.60;87.20;;;;;;5051826;28;20376;-81
2022/09/08 08:44:16;;;;;;;;;;;17.60;87.10;;;;;;5053260;28;20399;-81
2022/09/08 08:46:44;;;;;;;;;;;17.60;87.60;;;;;;5045186;28;19919;-82
2022/09/08 08:49:39;;;;;;;;;;;17.60;87.40;;;;;;5051115;28;19955;-81
2022/09/08 08:52:05;;;;;;;;;;;17.60;87.70;;;;;;5047315;28;19913;-81
2022/09/08 08:54:49;;;;;;;;;;;17.70;87.40;;;;;;5045010;28;19971;-81
2022/09/08 08:57:42;;;;;;;;;;;17.80;87.40;;;;;;5050488;28;20513;-81
2022/09/08 09:00:15;;;;;;;;;;;17.80;87.40;;;;;;5048851;28;19920;-82
2022/09/08 09:02:51;;;;;;;;;;;17.80;87.20;;;;;;5039054;28;21266;-81
2022/09/08 09:05:36;;;;;;;;;;;17.80;87.40;;;;;;5049665;28;19965;-81
2022/09/08 09:08:15;;;;;;;;;;;17.80;87.70;;;;;;5051431;28;19956;-81
2022/09/08 09:10:45;;;;;;;;;;;17.80;88.00;;;;;;5051819;28;19913;-81
2022/09/08 09:13:11;;;;;;;;;;;18.00;88.10;;;;;;5052078;28;19913;-81
2022/09/08 09:15:44;;;;;;;;;;;18.00;87.80;;;;;;5050184;28;19927;-82
2022/09/08 09:18:20;;;;;;;;;;;18.10;88.00;;;;;;5045153;28;19936;-81
2022/09/08 09:20:51;;;;;;;;;;;18.30;87.60;;;;;;5050649;28;19952;-81
2022/09/08 09:23:25;;;;;;;;;;;18.50;87.20;;;;;;5050403;28;19981;-80
2022/09/08 09:26:13;;;;;;;;;;;18.50;86.60;;;;;;5053397;28;19917;-80
2022/09/08 09:28:39;;;;;;;;;;;18.40;86.70;;;;;;5054040;28;19927;-81
2022/09/08 09:31:07;;;;;;;;;;;18.50;86.20;;;;;;5055503;28;20418;-81
2022/09/08 09:33:46;;;;;;;;;;;18.30;85.30;;;;;;5053461;28;20303;-80
2022/09/08 09:36:27;;;;;;;;;;;18.30;86.20;;;;;;5052749;28;19919;-80
2022/09/08 09:38:59;;;;;;;;;;;18.20;86.50;;;;;;5052988;28;19920;-80
2022/09/08 09:41:31;;;;;;;;;;;18.30;86.30;;;;;;5053397;28;19923;-81
2022/09/08 09:43:59;;;;;;;;;;;18.30;86.70;;;;;;5054514;28;19942;-81
2022/09/08 09:46:54;;;;;;;;;;;18.30;86.30;;;;;;5053332;28;19952;-80
2022/09/08 09:49:22;;;;;;;;;;;18.40;86.50;;;;;;5042489;28;19983;-80
2022/09/08 09:51:47;;;;;;;;;;;18.50;86.00;;;;;;5056533;28;19935;-81
2022/09/08 09:54:40;;;;;;;;;;;18.50;86.50;;;;;;5049077;28;19913;-81
2022/09/08 09:57:11;;;;;;;;;;;18.50;85.80;;;;;;5070185;28;19983;-81
2022/09/08 09:59:55;;;;;;;;;;;18.50;85.00;;;;;;5052741;28;19913;-81
2022/09/08 10:02:43;;;;;;;;;;;18.60;85.80;;;;;;5051090;28;19972;-82
2022/09/08 10:05:24;;;;;;;;;;;18.80;85.70;;;;;;5065240;28;19921;-83
2022/09/08 10:08:08;;;;;;;;;;;18.70;84.00;;;;;;5052411;28;19912;-81
2022/09/08 10:10:52;;;;;;;;;;;18.60;84.30;;;;;;5051577;28;19920;-82
2022/09/08 10:13:38;;;;;;;;;;;18.80;84.10;;;;;;5051798;28;19962;-82
2022/09/08 10:16:30;;;;;;;;;;;18.80;83.70;;;;;;5053955;28;19914;-82
2022/09/08 10:19:04;;;;;;;;;;;18.80;83.70;;;;;;5062777;28;20018;-81
2022/09/08 10:21:48;;;;;;;;;;;19.10;83.40;;;;;;5053860;28;19913;-83
2022/09/08 10:24:16;;;;;;;;;;;19.10;83.10;;;;;;5054216;28;19917;-83
2022/09/08 10:27:02;;;;;;;;;;;19.30;84.00;;;;;;5054330;28;19913;-83
2022/09/08 10:29:39;;;;;;;;;;;19.30;81.00;;;;;;5007789;28;19938;-83
2022/09/08 10:32:14;;;;;;;;;;;19.60;81.00;;;;;;5054558;28;20434;-83
2022/09/08 10:34:56;;;;;;;;;;;19.70;80.30;;;;;;5048725;28;19913;-84
2022/09/08 10:37:35;;;;;;;;;;;19.70;80.20;;;;;;5052348;28;20007;-82
2022/09/08 10:40:18;;;;;;;;;;;19.80;79.20;;;;;;5053466;28;19961;-82
2022/09/08 10:42:45;;;;;;;;;;;19.60;78.50;;;;;;5050008;28;20410;-82
2022/09/08 10:45:14;;;;;;;;;;;19.50;78.20;;;;;;5048378;28;19921;-82
2022/09/08 10:47:39;;;;;;;;;;;19.30;78.00;;;;;;5048503;28;19951;-82
2022/09/08 10:50:15;;;;;;;;;;;19.40;78.60;;;;;;5057937;28;19916;-86
2022/09/08 10:52:49;;;;;;;;;;;19.50;78.20;;;;;;5050143;28;19913;-82
2022/09/08 10:55:27;;;;;;;;;;;19.50;78.90;;;;;;5056311;28;19914;-83
2022/09/08 10:58:11;;;;;;;;;;;19.50;78.70;;;;;;5052187;28;19920;-81
2022/09/08 11:01:00;;;;;;;;;;;19.70;78.60;;;;;;5049947;28;20015;-82
2022/09/08 11:03:55;;;;;;;;;;;19.80;79.20;;;;;;5024350;28;20291;-80
2022/09/08 11:06:31;;;;;;;;;;;20.10;79.00;;;;;;5042095;28;19924;-79
2022/09/08 11:09:09;;;;;;;;;;;20.30;78.50;;;;;;5053981;28;19962;-78
2022/09/08 11:11:52;;;;;;;;;;;20.50;78.00;;;;;;5053637;28;19992;-79
2022/09/08 11:14:38;;;;;;;;;;;20.60;75.40;;;;;;5053729;28;19923;-81
2022/09/08 11:17:13;;;;;;;;;;;20.50;75.80;;;;;;5030864;28;20391;-80
2022/09/08 11:19:40;;;;;;;;;;;20.30;75.80;;;;;;5049625;28;19939;-84
2022/09/08 11:22:12;;;;;;;;;;;20.20;75.70;;;;;;5052416;28;20003;-83
2022/09/08 11:24:38;;;;;;;;;;;20.10;74.90;;;;;;5049067;28;19928;-83
2022/09/08 11:27:28;;;;;;;;;;;20.30;75.80;;;;;;5064647;28;19912;-83
2022/09/08 11:30:00;;;;;;;;;;;20.50;75.10;;;;;;5071878;28;20020;-82
2022/09/08 11:32:34;;;;;;;;;;;20.40;73.90;;;;;;5059934;28;19908;-82
2022/09/08 11:35:07;;;;;;;;;;;20.30;74.00;;;;;;5060926;28;19909;-84
2022/09/08 11:37:33;;;;;;;;;;;20.10;74.70;;;;;;5061579;28;19912;-82
2022/09/08 11:40:06;;;;;;;;;;;20.10;73.70;;;;;;5059661;28;20261;-81
2022/09/08 11:42:50;;;;;;;;;;;20.00;74.80;;;;;;5058305;28;19940;-82
2022/09/08 11:45:15;;;;;;;;;;;19.90;75.00;;;;;;5057399;28;19917;-83
2022/09/08 11:47:57;;;;;;;;;;;19.90;76.20;;;;;;5056062;28;20374;-84
2022/09/08 11:50:44;;;;;;;;;;;20.00;74.90;;;;;;5047103;28;19919;-85
2022/09/08 11:53:24;;;;;;;;;;;20.10;73.90;;;;;;5052461;28;19912;-84
2022/09/08 11:56:09;;;;;;;;;;;20.30;72.40;;;;;;5050661;28;19952;-85
2022/09/08 11:58:53;;;;;;;;;;;20.50;72.00;;;;;;5049013;28;19920;-91
2022/09/08 12:01:25;;;;;;;;;;;20.60;69.60;;;;;;5048416;28;19978;-88
2022/09/08 12:04:03;;;;;;;;;;;20.70;69.20;;;;;;5046712;28;19917;-85
2022/09/08 12:06:47;;;;;;;;;;;20.80;68.40;;;;;;5067410;28;20391;-89
2022/09/08 12:09:31;;;;;;;;;;;21.10;66.70;;;;;;5050044;28;20286;-84
2022/09/08 12:12:09;;;;;;;;;;;21.10;66.10;;;;;;5062871;28;20375;-85
2022/09/08 12:14:49;;;;;;;;;;;21.10;66.60;;;;;;5063861;28;20602;-85
2022/09/08 12:17:18;;;;;;;;;;;21.20;65.40;;;;;;5051341;28;19951;-82
2022/09/08 12:20:02;;;;;;;;;;;21.30;65.10;;;;;;5050800;28;19917;-86
2022/09/08 12:22:27;;;;;;;;;;;21.20;66.10;;;;;;5049956;28;19917;-83
2022/09/08 12:24:52;;;;;;;;;;;21.20;66.00;;;;;;5047796;28;19925;-81
2022/09/08 12:27:39;;;;;;;;;;;21.10;65.70;;;;;;5058166;28;19921;-83
2022/09/08 12:30:15;;;;;;;;;;;20.90;65.70;;;;;;5051305;28;19958;-83
2022/09/08 12:32:53;;;;;;;;;;;20.80;66.00;;;;;;5048667;28;19920;-83
2022/09/08 12:35:36;;;;;;;;;;;20.80;63.70;;;;;;5053247;28;20000;-84
2022/09/08 12:38:15;;;;;;;;;;;20.90;65.90;;;;;;5047447;28;19999;-81
2022/09/08 12:41:08;;;;;;;;;;;21.00;63.80;;;;;;5043726;28;19924;-81
2022/09/08 12:43:37;;;;;;;;;;;21.10;64.50;;;;;;5050742;28;19964;-80
2022/09/08 12:46:21;;;;;;;;;;;21.30;63.60;;;;;;5066876;28;19932;-81
2022/09/08 12:49:08;;;;;;;;;;;21.30;63.10;;;;;;5044753;28;19921;-81
2022/09/08 12:51:34;;;;;;;;;;;21.20;62.70;;;;;;5048858;28;19921;-82
2022/09/08 12:54:21;;;;;;;;;;;21.10;63.40;;;;;;5051698;28;19920;-81
2022/09/08 12:56:53;;;;;;;;;;;21.10;63.40;;;;;;5056061;28;20371;-80
2022/09/08 12:59:35;;;;;;;;;;;21.20;63.60;;;;;;5067781;28;20394;-83
2022/09/08 13:02:19;;;;;;;;;;;21.20;63.40;;;;;;5049416;28;19923;-82
2022/09/08 13:04:52;;;;;;;;;;;21.40;62.10;;;;;;5046681;28;20276;-83
2022/09/08 13:07:37;;;;;;;;;;;21.30;61.80;;;;;;5053233;28;20419;-82
2022/09/08 13:10:26;;;;;;;;;;;21.20;61.90;;;;;;5055428;28;20466;-82
2022/09/08 13:12:51;;;;;;;;;;;21.30;62.70;;;;;;5046669;28;20000;-83
2022/09/08 13:15:24;;;;;;;;;;;21.30;62.30;;;;;;5049473;28;19948;-82
2022/09/08 13:18:07;;;;;;;;;;;21.40;62.20;;;;;;5051811;28;19916;-82
2022/09/08 13:20:37;;;;;;;;;;;21.60;62.10;;;;;;5051493;28;19951;-83
2022/09/08 13:23:02;;;;;;;;;;;21.80;60.30;;;;;;5049569;28;19913;-82
2022/09/08 13:25:32;;;;;;;;;;;21.70;59.30;;;;;;5052184;28;19908;-82
2022/09/08 13:28:16;;;;;;;;;;;21.60;59.80;;;;;;5049418;28;19983;-82
2022/09/08 13:30:48;;;;;;;;;;;21.40;60.30;;;;;;5048366;28;19944;-83
2022/09/08 13:33:16;;;;;;;;;;;21.50;61.30;;;;;;5054494;28;19917;-83
2022/09/08 13:35:52;;;;;;;;;;;21.50;60.80;;;;;;5047608;28;19913;-82
2022/09/08 13:38:37;;;;;;;;;;;21.80;61.60;;;;;;5051630;28;20019;-82
2022/09/08 13:41:07;;;;;;;;;;;22.20;60.70;;;;;;5042666;28;19921;-83
2022/09/08 13:43:33;;;;;;;;;;;22.50;58.50;;;;;;5050612;28;19917;-81
2022/09/08 13:46:07;;;;;;;;;;;22.60;56.70;;;;;;5044915;28;19920;-82
2022/09/08 13:48:42;;;;;;;;;;;22.50;56.20;;;;;;5063192;28;19912;-82
2022/09/08 13:51:08;;;;;;;;;;;22.40;57.20;;;;;;5042952;28;19921;-82
2022/09/08 13:53:43;;;;;;;;;;;22.30;56.20;;;;;;5049259;28;20016;-83
2022/09/08 13:56:11;;;;;;;;;;;22.20;57.50;;;;;;5047594;28;19917;-82
2022/09/08 13:58:41;;;;;;;;;;;22.10;57.30;;;;;;5059771;28;20376;-82
2022/09/08 14:01:26;;;;;;;;;;;22.00;58.60;;;;;;5052825;28;19950;-82
2022/09/08 14:04:02;;;;;;;;;;;21.90;58.70;;;;;;5052899;28;19999;-82
2022/09/08 14:06:51;;;;;;;;;;;21.90;58.60;;;;;;5043873;28;19913;-81
2022/09/08 14:09:24;;;;;;;;;;;22.00;58.20;;;;;;5046162;28;19978;-82
2022/09/08 14:11:56;;;;;;;;;;;21.90;58.10;;;;;;5053660;28;19915;-81
2022/09/08 14:14:28;;;;;;;;;;;21.80;59.00;;;;;;5057340;28;19963;-82
2022/09/08 14:17:04;;;;;;;;;;;21.80;58.70;;;;;;5055536;28;19916;-82
2022/09/08 14:19:45;;;;;;;;;;;21.70;59.30;;;;;;5054946;28;19963;-80
2022/09/08 14:22:20;;;;;;;;;;;21.60;59.30;;;;;;5052582;28;19920;-82
2022/09/08 14:24:48;;;;;;;;;;;21.50;60.80;;;;;;5050769;28;20019;-81
2022/09/08 14:27:33;;;;;;;;;;;21.50;60.60;;;;;;5046863;28;19920;-83
2022/09/08 14:30:01;;;;;;;;;;;21.60;59.80;;;;;;5080102;28;19943;-81
2022/09/08 14:32:33;;;;;;;;;;;21.80;59.50;;;;;;5049827;28;19924;-81
2022/09/08 14:35:16;;;;;;;;;;;21.80;59.80;;;;;;5054677;28;19932;-82
2022/09/08 14:37:47;;;;;;;;;;;21.90;59.90;;;;;;5050044;28;20027;-82
2022/09/08 14:40:18;;;;;;;;;;;21.80;60.10;;;;;;5065843;28;19925;-81
2022/09/08 14:42:50;;;;;;;;;;;21.80;58.50;;;;;;5052207;28;20429;-82
2022/09/08 14:45:18;;;;;;;;;;;21.80;58.70;;;;;;5068696;28;19917;-82
2022/09/08 14:48:01;;;;;;;;;;;21.90;58.50;;;;;;5055377;28;20285;-82